ADDS METAR Data INFO
IDs: Format: Raw Decoded Include TAF

Data at: 0750 UTC 23 Jul 2018

KDVL 230656Z AUTO 28006KT 10SM CLR 16/12 A3009 RMK AO2 SLP198 T01560122
KDVL 230556Z AUTO 28006KT 10SM CLR 17/13 A3010 RMK AO2 SLP200 T01670128 10244 20161 51013
KDVL 230456Z AUTO 29006KT 10SM CLR 17/14 A3009 RMK AO2 SLP199 T01720139 402670172
KDVL 230356Z AUTO 30010KT 10SM CLR 19/15 A3008 RMK AO2 SLP192 T01940150
KDVL 230256Z AUTO 00000KT 10SM CLR 22/21 A3006 RMK AO2 SLP186 T02170206 53016 TSNO
KDVL 230156Z AUTO 00000KT 10SM CLR 23/21 A3003 RMK AO2 SLP177 T02330206
KDVL 230056Z AUTO 00000KT 10SM CLR 24/21 A3002 RMK AO2 SLP174 T02390206
KDVL 222356Z AUTO 30004KT 10SM CLR 23/21 A3001 RMK AO2 SLP171 60046 T02330206 10261 20194 50008
KDVL 222321Z AUTO 27008KT 10SM SCT010 23/21 A3002 RMK AO2
KDVL 222303Z AUTO 27007KT 10SM SCT008 OVC013 23/21 A3002 RMK AO2 LTG DSNT SE
KDVL 222256Z AUTO 28003KT 10SM BKN010 OVC015 22/21 A3002 RMK AO2 LTG DSNT SE RAE28 CIG 006V011 SLP175 P0001 T02170206
KDVL 222245Z AUTO 23004KT 10SM SCT008 BKN013 OVC080 22/21 A3002 RMK AO2 LTG DSNT E AND SE RAE28 P0001
KDVL 222234Z AUTO 22003KT 10SM SCT006 BKN060 OVC080 22/21 A3002 RMK AO2 LTG DSNT E-S RAE28 P0001
KDVL 222156Z AUTO 16007KT 10SM -RA FEW032 BKN050 OVC060 20/19 A3001 RMK AO2 PK WND 32028/2114 WSHFT 2106 LTG DSNT ALQDS TSE56RAB09 SLP171 P0045 T02000194
KDVL 222145Z AUTO 24003KT 9SM -TSRA FEW007 BKN034 OVC060 20/19 A3001 RMK AO2 PK WND 32028/2114 WSHFT 2106 LTG DSNT ALQDS RAB09 P0045
KDVL 222131Z AUTO VRB04KT 3SM +TSRA BR FEW006 BKN022 OVC031 19/19 A3001 RMK AO2 PK WND 32028/2114 WSHFT 2106 LTG DSNT NE AND E AND SW RAB09 P0042
KDVL 222124Z AUTO 33008KT 1 1/4SM +TSRA BR FEW006 BKN020 OVC029 19/19 A3002 RMK AO2 PK WND 32028/2114 WSHFT 2106 LTG DSNT ALQDS RAB09 P0037
KDVL 222120Z AUTO 32013G28KT 3/4SM +TSRA BR FEW006 BKN014 OVC031 19/18 A3002 RMK AO2 PK WND 32028/2114 WSHFT 2106 LTG DSNT ALQDS RAB09 P0032
KDVL 222118Z AUTO 32015G28KT 1SM +TSRA BR FEW006 BKN014 OVC031 19/18 A3002 RMK AO2 PK WND 32028/2114 LTG DSNT ALQDS RAB09 P0028
KDVL 222113Z AUTO 32021G25KT 1 3/4SM +TSRA BR FEW006 OVC031 20/18 A3001 RMK AO2 LTG DSNT ALQDS RAB09 P0015
KDVL 222056Z AUTO 19011KT 10SM VCTS OVC034 24/18 A2998 RMK AO2 LTG DSNT ALQDS TSB56 SLP161 T02440183 58008
KDVL 221956Z AUTO 17010KT 10SM FEW040 OVC049 25/18 A2999 RMK AO2 LTG DSNT N AND NW SLP164 T02500183
KDVL 221856Z AUTO 18012KT 10SM FEW034 OVC060 26/18 A3001 RMK AO2 SLP168 T02560178
KDVL 221756Z AUTO 16012G18KT 10SM BKN032 OVC065 26/18 A3001 RMK AO2 SLP169 T02610178 10267 20189 56000
KDVL 221706Z AUTO 19015G20KT 10SM BKN030 26/18 A3002 RMK AO2
KDVL 221656Z AUTO 17014KT 10SM BKN028 26/18 A3002 RMK AO2 SLP173 T02560183
KDVL 221632Z AUTO 17016G20KT 10SM BKN026 26/18 A3001 RMK AO2
KDVL 221556Z AUTO 17018G24KT 10SM FEW023 25/18 A2999 RMK AO2 SLP163 T02500178
KDVL 221456Z AUTO 16017KT 10SM CLR 23/18 A3001 RMK AO2 SLP170 T02330178 57009
KDVL 221356Z AUTO 16013KT 10SM CLR 21/18 A3002 RMK AO2 SLP174 T02110178
KDVL 221256Z AUTO 15012KT 10SM CLR 19/17 A3003 RMK AO2 SLP177 T01940172
KDVL 221156Z AUTO 14010KT 10SM OVC110 19/17 A3004 RMK AO2 SLP180 T01890167 10194 20178 58009
KDVL 221056Z AUTO 15012KT 10SM BKN110 19/17 A3005 RMK AO2 SLP184 T01890167
KDVL 220956Z AUTO 15011KT 10SM FEW120 18/17 A3006 RMK AO2 SLP190 T01830167
KDVL 220856Z AUTO 15010KT 10SM CLR 19/17 A3007 RMK AO2 SLP189 T01890172 55006
KDVL 220756Z AUTO 12011KT 10SM FEW012 19/17 A3006 RMK AO2 SLP188 T01890172
KDVL 220656Z AUTO 12006KT 10SM CLR 19/17 A3008 RMK AO2 SLP193 T01890167
KDVL 220556Z AUTO 13008KT 10SM CLR 19/16 A3008 RMK AO2 SLP196 T01940161 10233 20194 55013
KDVL 220456Z AUTO 16011KT 10SM CLR 20/17 A3008 RMK AO2 PRESFR SLP196 T02000167 402500117
KDVL 220356Z AUTO 18007KT 10SM CLR 20/17 A3012 RMK AO2 SLP208 T02000167
KDVL 220256Z AUTO 17006KT 10SM SCT036 21/16 A3012 RMK AO2 SLP211 T02110161 51016
KDVL 220156Z AUTO 14005KT 10SM CLR 22/16 A3012 RMK AO2 SLP209 T02170156
KDVL 220056Z AUTO 13009KT 10SM CLR 23/17 A3011 RMK AO2 SLP206 T02280167
KDVL 212356Z AUTO 12009KT 10SM CLR 23/16 A3008 RMK AO2 SLP197 T02330156 10250 20222 58007
KDVL 212256Z AUTO 14010KT 10SM FEW043 24/14 A3009 RMK AO2 SLP201 T02390144
KDVL 212156Z AUTO 10009G16KT 10SM BKN045 24/14 A3011 RMK AO2 SLP208 T02390139
KDVL 212056Z AUTO 08011G16KT 10SM SCT041 24/14 A3010 RMK AO2 SLP205 T02440144 56014
KDVL 211956Z AUTO 09007KT 9SM BKN039 23/14 A3011 RMK AO2 SLP208 T02330139